sensor_id;sensor_type;location;lat;lon;timestamp;pressure;altitude;pressure_sealevel;temperature;humidity
26937;BME280;14495;48.116;11.676;2022-08-21T00:00:19;95669.69;;;17.12;100.00
26937;BME280;14495;48.116;11.676;2022-08-21T00:02:58;95657.34;;;17.12;100.00
26937;BME280;14495;48.116;11.676;2022-08-21T00:05:24;95661.63;;;17.13;100.00
26937;BME280;14495;48.116;11.676;2022-08-21T00:07:50;95657.16;;;17.04;100.00
26937;BME280;14495;48.116;11.676;2022-08-21T00:10:15;95653.81;;;16.92;100.00
26937;BME280;14495;48.116;11.676;2022-08-21T00:12:41;95653.69;;;17.04;100.00
26937;BME280;14495;48.116;11.676;2022-08-21T00:15:09;95654.91;;;16.90;100.00
26937;BME280;14495;48.116;11.676;2022-08-21T00:17:35;95658.03;;;17.05;100.00
26937;BME280;14495;48.116;11.676;2022-08-21T00:20:05;95657.41;;;16.91;100.00
26937;BME280;14495;48.116;11.676;2022-08-21T00:22:31;95654.13;;;17.09;100.00
26937;BME280;14495;48.116;11.676;2022-08-21T00:24:57;95658.59;;;17.18;100.00
26937;BME280;14495;48.116;11.676;2022-08-21T00:27:23;95654.13;;;17.09;100.00
26937;BME280;14495;48.116;11.676;2022-08-21T00:29:48;95656.66;;;17.10;100.00
26937;BME280;14495;48.116;11.676;2022-08-21T00:32:20;95655.78;;;17.00;100.00
26937;BME280;14495;48.116;11.676;2022-08-21T00:34:45;95658.16;;;17.03;100.00
26937;BME280;14495;48.116;11.676;2022-08-21T00:37:11;95658.44;;;17.10;100.00
26937;BME280;14495;48.116;11.676;2022-08-21T00:39:36;95654.94;;;16.99;100.00
26937;BME280;14495;48.116;11.676;2022-08-21T00:42:02;95652.56;;;16.96;100.00
26937;BME280;14495;48.116;11.676;2022-08-21T00:44:27;95659.28;;;16.79;100.00
26937;BME280;14495;48.116;11.676;2022-08-21T00:46:53;95654.59;;;16.83;100.00
26937;BME280;14495;48.116;11.676;2022-08-21T00:49:18;95649.28;;;16.73;100.00
26937;BME280;14495;48.116;11.676;2022-08-21T00:51:50;95650.09;;;16.74;100.00
26937;BME280;14495;48.116;11.676;2022-08-21T00:54:19;95649.53;;;16.70;100.00
26937;BME280;14495;48.116;11.676;2022-08-21T00:56:48;95656.41;;;16.61;100.00
26937;BME280;14495;48.116;11.676;2022-08-21T00:59:16;95642.97;;;16.65;100.00
26937;BME280;14495;48.116;11.676;2022-08-21T01:01:42;95652.50;;;16.56;100.00
26937;BME280;14495;48.116;11.676;2022-08-21T01:04:08;95651.13;;;16.61;100.00
26937;BME280;14495;48.116;11.676;2022-08-21T01:06:33;95646.66;;;16.52;100.00
26937;BME280;14495;48.116;11.676;2022-08-21T01:09:00;95637.50;;;16.56;100.00
26937;BME280;14495;48.116;11.676;2022-08-21T01:11:25;95636.09;;;16.52;100.00
26937;BME280;14495;48.116;11.676;2022-08-21T01:13:51;95637.44;;;16.37;100.00
26937;BME280;14495;48.116;11.676;2022-08-21T01:16:18;95639.16;;;16.48;100.00
26937;BME280;14495;48.116;11.676;2022-08-21T01:18:45;95639.28;;;16.46;100.00
26937;BME280;14495;48.116;11.676;2022-08-21T01:21:16;95636.41;;;16.49;100.00
26937;BME280;14495;48.116;11.676;2022-08-21T01:23:45;95631.91;;;16.40;100.00
26937;BME280;14495;48.116;11.676;2022-08-21T01:26:13;95636.19;;;16.41;100.00
26937;BME280;14495;48.116;11.676;2022-08-21T01:28:46;95631.25;;;16.48;100.00
26937;BME280;14495;48.116;11.676;2022-08-21T01:31:15;95625.78;;;16.39;100.00
26937;BME280;14495;48.116;11.676;2022-08-21T01:33:42;95633.09;;;16.36;100.00
26937;BME280;14495;48.116;11.676;2022-08-21T01:36:07;95637.50;;;16.26;100.00
26937;BME280;14495;48.116;11.676;2022-08-21T01:38:33;95635.41;;;16.19;100.00
26937;BME280;14495;48.116;11.676;2022-08-21T01:40:58;95637.00;;;16.11;100.00
26937;BME280;14495;48.116;11.676;2022-08-21T01:43:24;95635.41;;;16.19;100.00
26937;BME280;14495;48.116;11.676;2022-08-21T01:45:49;95639.44;;;16.23;100.00
26937;BME280;14495;48.116;11.676;2022-08-21T01:48:15;95639.25;;;16.15;100.00
26937;BME280;14495;48.116;11.676;2022-08-21T01:50:40;95626.47;;;16.11;100.00
26937;BME280;14495;48.116;11.676;2022-08-21T01:53:05;95632.38;;;16.03;100.00
26937;BME280;14495;48.116;11.676;2022-08-21T01:55:31;95628.31;;;15.99;100.00
26937;BME280;14495;48.116;11.676;2022-08-21T01:57:57;95624.53;;;16.13;100.00
26937;BME280;14495;48.116;11.676;2022-08-21T02:00:24;95621.19;;;16.11;100.00
26937;BME280;14495;48.116;11.676;2022-08-21T02:02:50;95622.16;;;15.89;100.00
26937;BME280;14495;48.116;11.676;2022-08-21T02:05:16;95621.38;;;15.98;100.00
26937;BME280;14495;48.116;11.676;2022-08-21T02:07:47;95620.16;;;15.81;100.00
26937;BME280;14495;48.116;11.676;2022-08-21T02:10:19;95618.53;;;15.90;100.00
26937;BME280;14495;48.116;11.676;2022-08-21T02:12:45;95616.00;;;15.99;100.00
26937;BME280;14495;48.116;11.676;2022-08-21T02:15:11;95620.47;;;15.88;100.00
26937;BME280;14495;48.116;11.676;2022-08-21T02:17:45;95612.66;;;15.97;100.00
26937;BME280;14495;48.116;11.676;2022-08-21T02:20:16;95609.44;;;15.94;100.00
26937;BME280;14495;48.116;11.676;2022-08-21T02:22:42;95618.53;;;15.90;100.00
26937;BME280;14495;48.116;11.676;2022-08-21T02:25:08;95612.19;;;15.92;100.00
26937;BME280;14495;48.116;11.676;2022-08-21T02:27:41;95612.44;;;15.89;100.00
26937;BME280;14495;48.116;11.676;2022-08-21T02:30:08;95612.13;;;15.82;100.00
26937;BME280;14495;48.116;11.676;2022-08-21T02:32:34;95609.06;;;15.77;100.00
26937;BME280;14495;48.116;11.676;2022-08-21T02:35:00;95614.34;;;15.66;100.00
26937;BME280;14495;48.116;11.676;2022-08-21T02:37:25;95619.84;;;15.74;100.00
26937;BME280;14495;48.116;11.676;2022-08-21T02:39:51;95607.00;;;15.81;100.00
26937;BME280;14495;48.116;11.676;2022-08-21T02:42:16;95610.78;;;15.88;100.00
26937;BME280;14495;48.116;11.676;2022-08-21T02:44:41;95608.47;;;15.74;100.00
26937;BME280;14495;48.116;11.676;2022-08-21T02:47:07;95607.00;;;15.81;100.00
26937;BME280;14495;48.116;11.676;2022-08-21T02:49:32;95606.88;;;15.71;100.00
26937;BME280;14495;48.116;11.676;2022-08-21T02:51:58;95608.16;;;15.56;100.00
26937;BME280;14495;48.116;11.676;2022-08-21T02:54:23;95607.41;;;15.65;100.00
26937;BME280;14495;48.116;11.676;2022-08-21T02:56:48;95603.28;;;15.72;100.00
26937;BME280;14495;48.116;11.676;2022-08-21T02:59:14;95601.19;;;15.66;100.00
26937;BME280;14495;48.116;11.676;2022-08-21T03:01:39;95608.38;;;15.64;100.00
26937;BME280;14495;48.116;11.676;2022-08-21T03:04:04;95611.94;;;15.74;100.00
26937;BME280;14495;48.116;11.676;2022-08-21T03:06:30;95609.50;;;15.71;100.00
26937;BME280;14495;48.116;11.676;2022-08-21T03:08:55;95606.09;;;15.38;100.00
26937;BME280;14495;48.116;11.676;2022-08-21T03:11:20;95610.09;;;15.54;100.00
26937;BME280;14495;48.116;11.676;2022-08-21T03:13:46;95610.53;;;15.59;100.00
26937;BME280;14495;48.116;11.676;2022-08-21T03:16:11;95612.81;;;15.31;100.00
26937;BME280;14495;48.116;11.676;2022-08-21T03:18:37;95615.06;;;15.36;100.00
26937;BME280;14495;48.116;11.676;2022-08-21T03:21:03;95613.88;;;15.61;100.00
26937;BME280;14495;48.116;11.676;2022-08-21T03:23:29;95612.97;;;15.51;100.00
26937;BME280;14495;48.116;11.676;2022-08-21T03:25:55;95615.16;;;15.45;100.00
26937;BME280;14495;48.116;11.676;2022-08-21T03:28:21;95604.44;;;15.26;100.00
26937;BME280;14495;48.116;11.676;2022-08-21T03:30:48;95606.94;;;15.27;100.00
26937;BME280;14495;48.116;11.676;2022-08-21T03:33:15;95600.44;;;15.43;100.00
26937;BME280;14495;48.116;11.676;2022-08-21T03:35:45;95605.22;;;15.49;100.00
26937;BME280;14495;48.116;11.676;2022-08-21T03:38:12;95611.47;;;15.37;100.00
26937;BME280;14495;48.116;11.676;2022-08-21T03:40:38;95602.59;;;15.38;100.00
26937;BME280;14495;48.116;11.676;2022-08-21T03:43:03;95607.03;;;15.37;100.00
26937;BME280;14495;48.116;11.676;2022-08-21T03:45:29;95610.38;;;15.39;100.00
26937;BME280;14495;48.116;11.676;2022-08-21T03:47:59;95616.28;;;15.53;100.00
26937;BME280;14495;48.116;11.676;2022-08-21T03:50:28;95619.25;;;15.38;100.00
26937;BME280;14495;48.116;11.676;2022-08-21T03:52:54;95617.94;;;15.33;100.00
26937;BME280;14495;48.116;11.676;2022-08-21T03:55:20;95624.78;;;15.24;100.00
26937;BME280;14495;48.116;11.676;2022-08-21T03:57:45;95625.84;;;15.33;100.00
26937;BME280;14495;48.116;11.676;2022-08-21T04:00:12;95626.69;;;15.33;100.00
26937;BME280;14495;48.116;11.676;2022-08-21T04:02:39;95626.88;;;15.41;100.00
26937;BME280;14495;48.116;11.676;2022-08-21T04:05:05;95620.44;;;15.34;100.00
26937;BME280;14495;48.116;11.676;2022-08-21T04:07:31;95622.19;;;15.13;100.00
26937;BME280;14495;48.116;11.676;2022-08-21T04:09:56;95622.63;;;15.29;100.00
26937;BME280;14495;48.116;11.676;2022-08-21T04:12:22;95630.41;;;15.19;100.00
26937;BME280;14495;48.116;11.676;2022-08-21T04:14:49;95624.13;;;14.99;100.00
26937;BME280;14495;48.116;11.676;2022-08-21T04:17:16;95629.84;;;15.04;100.00
26937;BME280;14495;48.116;11.676;2022-08-21T04:19:42;95629.63;;;15.07;100.00
26937;BME280;14495;48.116;11.676;2022-08-21T04:22:07;95627.19;;;15.16;100.00
26937;BME280;14495;48.116;11.676;2022-08-21T04:24:33;95635.69;;;15.08;100.00
26937;BME280;14495;48.116;11.676;2022-08-21T04:26:58;95637.03;;;15.02;100.00
26937;BME280;14495;48.116;11.676;2022-08-21T04:29:23;95636.31;;;15.00;100.00
26937;BME280;14495;48.116;11.676;2022-08-21T04:31:48;95643.97;;;15.03;100.00
26937;BME280;14495;48.116;11.676;2022-08-21T04:34:14;95645.16;;;15.11;100.00
26937;BME280;14495;48.116;11.676;2022-08-21T04:36:39;95646.94;;;15.10;100.00
26937;BME280;14495;48.116;11.676;2022-08-21T04:39:05;95650.97;;;15.37;100.00
26937;BME280;14495;48.116;11.676;2022-08-21T04:41:30;95649.97;;;15.38;100.00
26937;BME280;14495;48.116;11.676;2022-08-21T04:43:56;95656.56;;;15.32;100.00
26937;BME280;14495;48.116;11.676;2022-08-21T04:46:22;95658.97;;;15.35;100.00
26937;BME280;14495;48.116;11.676;2022-08-21T04:48:47;95663.28;;;15.36;100.00
26937;BME280;14495;48.116;11.676;2022-08-21T04:51:28;95666.28;;;15.32;100.00
26937;BME280;14495;48.116;11.676;2022-08-21T04:54:11;95663.03;;;15.39;100.00
26937;BME280;14495;48.116;11.676;2022-08-21T04:56:54;95660.41;;;15.39;100.00
26937;BME280;14495;48.116;11.676;2022-08-21T04:59:24;95664.91;;;15.49;100.00
26937;BME280;14495;48.116;11.676;2022-08-21T05:01:51;95655.25;;;15.70;100.00
26937;BME280;14495;48.116;11.676;2022-08-21T05:04:25;95656.91;;;15.71;100.00
26937;BME280;14495;48.116;11.676;2022-08-21T05:06:54;95647.66;;;15.56;100.00
26937;BME280;14495;48.116;11.676;2022-08-21T05:09:21;95660.78;;;15.67;100.00
26937;BME280;14495;48.116;11.676;2022-08-21T05:11:47;95659.47;;;15.61;100.00
26937;BME280;14495;48.116;11.676;2022-08-21T05:14:14;95658.13;;;15.78;100.00
26937;BME280;14495;48.116;11.676;2022-08-21T05:16:40;95651.59;;;15.94;100.00
26937;BME280;14495;48.116;11.676;2022-08-21T05:19:07;95661.09;;;16.06;100.00
26937;BME280;14495;48.116;11.676;2022-08-21T05:21:38;95661.09;;;16.06;100.00
26937;BME280;14495;48.116;11.676;2022-08-21T05:24:04;95667.41;;;16.15;100.00
26937;BME280;14495;48.116;11.676;2022-08-21T05:26:30;95662.72;;;16.18;100.00
26937;BME280;14495;48.116;11.676;2022-08-21T05:28:55;95662.91;;;16.27;100.00
26937;BME280;14495;48.116;11.676;2022-08-21T05:31:21;95667.38;;;16.36;100.00
26937;BME280;14495;48.116;11.676;2022-08-21T05:33:47;95676.91;;;16.48;100.00
26937;BME280;14495;48.116;11.676;2022-08-21T05:36:13;95673.47;;;16.57;100.00
26937;BME280;14495;48.116;11.676;2022-08-21T05:38:38;95667.75;;;16.52;100.00
26937;BME280;14495;48.116;11.676;2022-08-21T05:41:04;95676.94;;;16.58;100.00
26937;BME280;14495;48.116;11.676;2022-08-21T05:43:29;95677.44;;;16.73;100.00
26937;BME280;14495;48.116;11.676;2022-08-21T05:45:55;95678.03;;;17.17;100.00
26937;BME280;14495;48.116;11.676;2022-08-21T05:48:23;95684.94;;;16.98;100.00
26937;BME280;14495;48.116;11.676;2022-08-21T05:50:50;95677.75;;;17.10;100.00
26937;BME280;14495;48.116;11.676;2022-08-21T05:53:18;95678.22;;;17.25;100.00
26937;BME280;14495;48.116;11.676;2022-08-21T05:55:44;95686.53;;;17.20;100.00
26937;BME280;14495;48.116;11.676;2022-08-21T05:58:10;95687.69;;;17.37;100.00
26937;BME280;14495;48.116;11.676;2022-08-21T06:00:36;95689.47;;;17.27;100.00
26937;BME280;14495;48.116;11.676;2022-08-21T06:03:02;95681.44;;;17.58;100.00
26937;BME280;14495;48.116;11.676;2022-08-21T06:05:27;95694.41;;;17.51;100.00
26937;BME280;14495;48.116;11.676;2022-08-21T06:07:52;95687.34;;;17.71;100.00
26937;BME280;14495;48.116;11.676;2022-08-21T06:10:18;95689.69;;;17.55;100.00
26937;BME280;14495;48.116;11.676;2022-08-21T06:12:43;95697.31;;;17.58;100.00
26937;BME280;14495;48.116;11.676;2022-08-21T06:15:09;95689.81;;;17.53;100.00
26937;BME280;14495;48.116;11.676;2022-08-21T06:17:34;95695.91;;;17.54;100.00
26937;BME280;14495;48.116;11.676;2022-08-21T06:20:00;95685.50;;;17.82;100.00
26937;BME280;14495;48.116;11.676;2022-08-21T06:22:25;95685.34;;;17.64;100.00
26937;BME280;14495;48.116;11.676;2022-08-21T06:24:51;95681.09;;;17.92;100.00
26937;BME280;14495;48.116;11.676;2022-08-21T06:27:16;95685.97;;;17.96;100.00
26937;BME280;14495;48.116;11.676;2022-08-21T06:29:43;95689.84;;;18.02;100.00
26937;BME280;14495;48.116;11.676;2022-08-21T06:32:11;95690.97;;;18.09;100.00
26937;BME280;14495;48.116;11.676;2022-08-21T06:34:37;95692.34;;;18.13;100.00
26937;BME280;14495;48.116;11.676;2022-08-21T06:37:04;95691.50;;;18.23;100.00
26937;BME280;14495;48.116;11.676;2022-08-21T06:39:29;95683.84;;;18.29;100.00
26937;BME280;14495;48.116;11.676;2022-08-21T06:41:54;95685.44;;;18.69;100.00
26937;BME280;14495;48.116;11.676;2022-08-21T06:44:20;95682.75;;;18.89;100.00
26937;BME280;14495;48.116;11.676;2022-08-21T06:46:45;95679.84;;;19.10;100.00
26937;BME280;14495;48.116;11.676;2022-08-21T06:49:10;95681.13;;;19.06;100.00
26937;BME280;14495;48.116;11.676;2022-08-21T06:51:36;95676.91;;;19.41;100.00
26937;BME280;14495;48.116;11.676;2022-08-21T06:54:01;95673.09;;;18.98;100.00
26937;BME280;14495;48.116;11.676;2022-08-21T06:56:26;95667.84;;;19.61;100.00
26937;BME280;14495;48.116;11.676;2022-08-21T06:58:52;95673.56;;;18.83;100.00
26937;BME280;14495;48.116;11.676;2022-08-21T07:01:20;95677.75;;;18.76;100.00
26937;BME280;14495;48.116;11.676;2022-08-21T07:03:48;95667.25;;;19.22;100.00
26937;BME280;14495;48.116;11.676;2022-08-21T07:06:13;95666.03;;;18.88;100.00
26937;BME280;14495;48.116;11.676;2022-08-21T07:08:39;95668.69;;;19.16;100.00
26937;BME280;14495;48.116;11.676;2022-08-21T07:11:11;95665.03;;;19.17;100.00
26937;BME280;14495;48.116;11.676;2022-08-21T07:13:37;95666.72;;;19.18;100.00
26937;BME280;14495;48.116;11.676;2022-08-21T07:16:02;95666.53;;;19.02;100.00
26937;BME280;14495;48.116;11.676;2022-08-21T07:18:29;95663.59;;;19.33;100.00
26937;BME280;14495;48.116;11.676;2022-08-21T07:20:55;95657.84;;;19.55;100.00
26937;BME280;14495;48.116;11.676;2022-08-21T07:23:27;95656.41;;;19.61;100.00
26937;BME280;14495;48.116;11.676;2022-08-21T07:25:53;95656.28;;;19.98;100.00
26937;BME280;14495;48.116;11.676;2022-08-21T07:28:19;95659.84;;;20.07;100.00
26937;BME280;14495;48.116;11.676;2022-08-21T07:30:44;95660.09;;;19.96;100.00
26937;BME280;14495;48.116;11.676;2022-08-21T07:33:11;95665.19;;;20.15;100.00
26937;BME280;14495;48.116;11.676;2022-08-21T07:35:36;95666.22;;;20.40;100.00
26937;BME280;14495;48.116;11.676;2022-08-21T07:38:02;95668.47;;;20.27;100.00
26937;BME280;14495;48.116;11.676;2022-08-21T07:40:27;95660.44;;;20.45;100.00
26937;BME280;14495;48.116;11.676;2022-08-21T07:42:52;95662.25;;;20.00;100.00
26937;BME280;14495;48.116;11.676;2022-08-21T07:45:22;95659.75;;;20.17;100.00
26937;BME280;14495;48.116;11.676;2022-08-21T07:47:49;95659.50;;;20.28;100.00
26937;BME280;14495;48.116;11.676;2022-08-21T07:50:15;95659.09;;;20.41;100.00
26937;BME280;14495;48.116;11.676;2022-08-21T07:52:41;95660.88;;;20.84;100.00
26937;BME280;14495;48.116;11.676;2022-08-21T07:55:09;95654.91;;;20.82;100.00
26937;BME280;14495;48.116;11.676;2022-08-21T07:57:36;95652.84;;;20.68;100.00
26937;BME280;14495;48.116;11.676;2022-08-21T08:00:04;95652.03;;;21.10;100.00
26937;BME280;14495;48.116;11.676;2022-08-21T08:02:29;95655.72;;;21.17;100.00
26937;BME280;14495;48.116;11.676;2022-08-21T08:05:00;95648.44;;;21.19;100.00
26937;BME280;14495;48.116;11.676;2022-08-21T08:07:26;95645.13;;;20.91;100.00
26937;BME280;14495;48.116;11.676;2022-08-21T08:09:51;95650.63;;;21.40;100.00
26937;BME280;14495;48.116;11.676;2022-08-21T08:12:17;95645.03;;;21.52;100.00
26937;BME280;14495;48.116;11.676;2022-08-21T08:14:43;95636.28;;;21.76;100.00
26937;BME280;14495;48.116;11.676;2022-08-21T08:17:08;95640.75;;;21.59;100.00
26937;BME280;14495;48.116;11.676;2022-08-21T08:19:34;95637.63;;;21.88;100.00
26937;BME280;14495;48.116;11.676;2022-08-21T08:21:59;95643.44;;;21.75;100.00
26937;BME280;14495;48.116;11.676;2022-08-21T08:24:25;95647.25;;;22.06;100.00
26937;BME280;14495;48.116;11.676;2022-08-21T08:26:50;95648.78;;;21.92;100.00
26937;BME280;14495;48.116;11.676;2022-08-21T08:29:15;95642.09;;;21.79;100.00
26937;BME280;14495;48.116;11.676;2022-08-21T08:31:41;95632.31;;;21.88;100.00
26937;BME280;14495;48.116;11.676;2022-08-21T08:34:06;95644.94;;;21.70;100.00
26937;BME280;14495;48.116;11.676;2022-08-21T08:36:34;95641.75;;;21.74;100.00
26937;BME280;14495;48.116;11.676;2022-08-21T08:39:02;95634.94;;;21.64;100.00
26937;BME280;14495;48.116;11.676;2022-08-21T08:41:29;95633.75;;;21.58;100.00
26937;BME280;14495;48.116;11.676;2022-08-21T08:43:58;95638.63;;;22.20;100.00
26937;BME280;14495;48.116;11.676;2022-08-21T08:46:35;95634.63;;;22.16;100.00
26937;BME280;14495;48.116;11.676;2022-08-21T08:49:11;95632.94;;;22.56;100.00
26937;BME280;14495;48.116;11.676;2022-08-21T08:51:52;95632.66;;;22.98;97.85
26937;BME280;14495;48.116;11.676;2022-08-21T08:54:29;95624.94;;;22.56;96.76
26937;BME280;14495;48.116;11.676;2022-08-21T08:56:59;95636.13;;;22.51;93.45
26937;BME280;14495;48.116;11.676;2022-08-21T08:59:27;95638.63;;;22.36;97.14
26937;BME280;14495;48.116;11.676;2022-08-21T09:01:55;95631.78;;;22.50;97.64
26937;BME280;14495;48.116;11.676;2022-08-21T09:04:24;95633.50;;;22.91;100.00
26937;BME280;14495;48.116;11.676;2022-08-21T09:06:58;95635.22;;;22.75;94.97
26937;BME280;14495;48.116;11.676;2022-08-21T09:09:31;95631.06;;;23.29;92.37
26937;BME280;14495;48.116;11.676;2022-08-21T09:12:08;95634.31;;;23.39;93.61
26937;BME280;14495;48.116;11.676;2022-08-21T09:14:45;95638.31;;;23.12;89.45
26937;BME280;14495;48.116;11.676;2022-08-21T09:20:11;95628.63;;;24.20;84.78
26937;BME280;14495;48.116;11.676;2022-08-21T09:25:37;95627.28;;;25.06;74.47
26937;BME280;14495;48.116;11.676;2022-08-21T09:28:09;95625.41;;;25.37;70.40
26937;BME280;14495;48.116;11.676;2022-08-21T09:30:36;95618.44;;;26.15;68.95
26937;BME280;14495;48.116;11.676;2022-08-21T09:33:04;95621.38;;;26.77;63.75
26937;BME280;14495;48.116;11.676;2022-08-21T09:35:29;95630.69;;;26.59;62.61
26937;BME280;14495;48.116;11.676;2022-08-21T09:38:01;95621.81;;;27.22;61.14
26937;BME280;14495;48.116;11.676;2022-08-21T09:42:59;95628.00;;;27.64;56.17
26937;BME280;14495;48.116;11.676;2022-08-21T09:45:25;95620.59;;;27.86;56.26
26937;BME280;14495;48.116;11.676;2022-08-21T09:47:50;95615.69;;;28.03;57.82
26937;BME280;14495;48.116;11.676;2022-08-21T09:50:21;95613.63;;;27.92;54.39
26937;BME280;14495;48.116;11.676;2022-08-21T09:52:53;95616.31;;;26.60;57.44
26937;BME280;14495;48.116;11.676;2022-08-21T09:55:25;95619.69;;;27.11;56.58
26937;BME280;14495;48.116;11.676;2022-08-21T09:58:14;95610.13;;;28.51;55.34
26937;BME280;14495;48.116;11.676;2022-08-21T10:00:42;95606.44;;;28.66;55.85
26937;BME280;14495;48.116;11.676;2022-08-21T10:03:17;95608.88;;;29.46;51.40
26937;BME280;14495;48.116;11.676;2022-08-21T10:05:57;95604.38;;;29.33;47.69
26937;BME280;14495;48.116;11.676;2022-08-21T10:08:25;95607.25;;;30.47;47.19
26937;BME280;14495;48.116;11.676;2022-08-21T10:10:54;95603.66;;;30.53;49.70
26937;BME280;14495;48.116;11.676;2022-08-21T10:13:29;95606.53;;;30.01;47.05
26937;BME280;14495;48.116;11.676;2022-08-21T10:18:41;95604.34;;;28.41;50.21
26937;BME280;14495;48.116;11.676;2022-08-21T10:21:22;95605.75;;;26.87;56.94
26937;BME280;14495;48.116;11.676;2022-08-21T10:32:09;95599.72;;;24.91;73.06
26937;BME280;14495;48.116;11.676;2022-08-21T10:40:26;95599.59;;;24.40;80.72
26937;BME280;14495;48.116;11.676;2022-08-21T10:43:21;95594.34;;;26.72;66.60
26937;BME280;14495;48.116;11.676;2022-08-21T10:48:28;95584.81;;;27.52;57.53
26937;BME280;14495;48.116;11.676;2022-08-21T10:51:03;95589.22;;;26.77;61.57
26937;BME280;14495;48.116;11.676;2022-08-21T10:53:41;95589.34;;;27.04;63.07
26937;BME280;14495;48.116;11.676;2022-08-21T10:56:17;95587.03;;;26.94;61.79
26937;BME280;14495;48.116;11.676;2022-08-21T10:58:55;95591.47;;;26.45;63.98
26937;BME280;14495;48.116;11.676;2022-08-21T11:01:31;95585.72;;;28.66;59.62
26937;BME280;14495;48.116;11.676;2022-08-21T11:04:12;95583.91;;;29.71;52.42
26937;BME280;14495;48.116;11.676;2022-08-21T11:06:43;95589.97;;;30.98;50.38
26937;BME280;14495;48.116;11.676;2022-08-21T11:09:17;95578.16;;;31.30;48.44
26937;BME280;14495;48.116;11.676;2022-08-21T11:11:50;95574.31;;;31.86;45.28
26937;BME280;14495;48.116;11.676;2022-08-21T11:14:54;95577.53;;;32.72;43.10
26937;BME280;14495;48.116;11.676;2022-08-21T11:17:16;95572.66;;;31.85;43.69
26937;BME280;14495;48.116;11.676;2022-08-21T11:19:52;95573.53;;;31.97;43.78
26937;BME280;14495;48.116;11.676;2022-08-21T11:22:25;95575.91;;;31.45;44.96
26937;BME280;14495;48.116;11.676;2022-08-21T11:25:06;95570.28;;;29.65;49.29
26937;BME280;14495;48.116;11.676;2022-08-21T11:30:00;95565.25;;;27.10;61.84
26937;BME280;14495;48.116;11.676;2022-08-21T11:38:24;95559.47;;;25.65;65.26
26937;BME280;14495;48.116;11.676;2022-08-21T11:44:08;95563.91;;;25.22;65.39
26937;BME280;14495;48.116;11.676;2022-08-21T11:49:28;95552.44;;;27.81;54.80
26937;BME280;14495;48.116;11.676;2022-08-21T11:52:51;95553.88;;;27.83;51.73
26937;BME280;14495;48.116;11.676;2022-08-21T11:55:34;95549.91;;;27.46;53.98
26937;BME280;14495;48.116;11.676;2022-08-21T12:00:36;95549.81;;;30.47;45.36
26937;BME280;14495;48.116;11.676;2022-08-21T12:03:15;95545.13;;;31.65;43.94
26937;BME280;14495;48.116;11.676;2022-08-21T12:05:53;95550.28;;;33.26;39.74
26937;BME280;14495;48.116;11.676;2022-08-21T12:08:30;95533.00;;;33.04;39.50
26937;BME280;14495;48.116;11.676;2022-08-21T12:13:54;95535.69;;;32.63;37.52
26937;BME280;14495;48.116;11.676;2022-08-21T12:16:38;95539.41;;;32.39;38.53
26937;BME280;14495;48.116;11.676;2022-08-21T12:19:11;95538.53;;;33.49;38.80
26937;BME280;14495;48.116;11.676;2022-08-21T12:27:01;95527.78;;;32.73;39.75
26937;BME280;14495;48.116;11.676;2022-08-21T12:29:38;95519.69;;;31.96;42.31
26937;BME280;14495;48.116;11.676;2022-08-21T12:34:38;95521.63;;;28.70;47.43
26937;BME280;14495;48.116;11.676;2022-08-21T12:37:16;95531.09;;;26.84;53.18
26937;BME280;14495;48.116;11.676;2022-08-21T12:39:47;95519.00;;;25.97;54.84
26937;BME280;14495;48.116;11.676;2022-08-21T12:42:21;95516.53;;;25.31;60.62
26937;BME280;14495;48.116;11.676;2022-08-21T12:44:53;95516.53;;;25.16;63.60
26937;BME280;14495;48.116;11.676;2022-08-21T12:47:36;95518.19;;;24.80;67.66
26937;BME280;14495;48.116;11.676;2022-08-21T12:50:13;95503.06;;;24.87;67.63
26937;BME280;14495;48.116;11.676;2022-08-21T12:52:53;95511.94;;;24.58;68.99
26937;BME280;14495;48.116;11.676;2022-08-21T12:55:30;95507.03;;;25.13;67.39
26937;BME280;14495;48.116;11.676;2022-08-21T12:57:55;95501.84;;;26.89;59.72
26937;BME280;14495;48.116;11.676;2022-08-21T13:00:24;95508.34;;;29.34;50.57
26937;BME280;14495;48.116;11.676;2022-08-21T13:02:50;95506.13;;;29.56;50.45
26937;BME280;14495;48.116;11.676;2022-08-21T13:07:50;95507.44;;;30.03;45.53
26937;BME280;14495;48.116;11.676;2022-08-21T13:12:46;95491.47;;;27.34;51.65
26937;BME280;14495;48.116;11.676;2022-08-21T13:15:12;95490.94;;;27.92;49.90
26937;BME280;14495;48.116;11.676;2022-08-21T13:17:42;95491.88;;;29.10;48.33
26937;BME280;14495;48.116;11.676;2022-08-21T13:20:20;95489.34;;;30.11;46.59
26937;BME280;14495;48.116;11.676;2022-08-21T13:22:47;95492.84;;;30.80;45.18
26937;BME280;14495;48.116;11.676;2022-08-21T13:25:16;95489.66;;;30.83;42.78
26937;BME280;14495;48.116;11.676;2022-08-21T13:27:43;95487.53;;;28.57;46.83
26937;BME280;14495;48.116;11.676;2022-08-21T13:30:20;95488.03;;;27.81;48.04
26937;BME280;14495;48.116;11.676;2022-08-21T13:32:50;95483.44;;;27.34;48.96
26937;BME280;14495;48.116;11.676;2022-08-21T13:37:46;95478.34;;;28.06;48.07
26937;BME280;14495;48.116;11.676;2022-08-21T13:40:16;95468.72;;;28.64;48.81
26937;BME280;14495;48.116;11.676;2022-08-21T13:42:44;95470.28;;;28.06;50.56
26937;BME280;14495;48.116;11.676;2022-08-21T13:45:13;95468.38;;;27.40;51.89
26937;BME280;14495;48.116;11.676;2022-08-21T13:47:39;95470.09;;;26.86;51.89
26937;BME280;14495;48.116;11.676;2022-08-21T13:50:05;95475.63;;;26.43;50.98
26937;BME280;14495;48.116;11.676;2022-08-21T13:52:32;95475.63;;;27.53;50.54